Portada
METAR-TAF:

METAR-TAF

Aeropuertos :

Dhahran, Arabia Saudita

latitud: 26-16N, longitud: 050-09E, altitud: 26 m

Observación

El informe se hizo hace 52 minutos, a las 14:00 UTC
Viento 8 kt del este
Temperatura 29°C
Humedad 20%
Presión 1010 hPa
Visibilidad 10 km o más
Escasas nubes a una altura de 4000 ft

METAR: OEDR 011400Z 09008KT 9999 FEW040 29/04 Q1010

Hora: 17:52 (14:52 UTC)

Pronóstico

El informe se hizo hace 6 horas y 52 minutos, a las 08:00 UTC
Pronóstico válido del 01 a las 12 UTC al 02 a las 18 UTC
Viento 15 kt del este
Visibilidad: 8000 m
Evolucionando progresivamente
del 01 a las 18 UTC al 01 a las 20 UTC
Viento 10 kt del sur-sureste

TAF: OEDR 010800Z 0112/0218 09015KT 8000 NSC BECMG 0118/0120 15010KT

Observaciones y pronósticos meteorológicos de más de 4000 aeropuertos (mensajes METAR y TAF).

Los puntos amarillos y rojos representan las estaciones disponibles.

Ponga el ratón en el punto deseado para ver el nombre de la estación.

Haga clic para ver las observaciones y los pronósticos meteorológicos.

Para cambiar el mapa : haga clic en los botones verdes con una cruz de color negro para hacer un zoom, en el botón verde con un guión para alejar o en las flechas verdes para mapas adyacentes.


METAR-TAF: